TimeEST,TemperatureF,Dew PointF,Humidity,Sea Level PressureIn,VisibilityMPH,Wind Direction,Wind SpeedMPH,Gust SpeedMPH,PrecipitationIn,Events,Conditions,WindDirDegrees,DateUTC
12:53 AM,59.0,57.0,93,29.98,5.0,Variable,5.8,-,0.05,Rain,Light Rain,0,2013-11-07 05:53:00
1:01 AM,59.0,57.0,93,30.02,4.0,Variable,4.6,-,0.01,Rain,Rain,0,2013-11-07 06:01:00
1:13 AM,59.0,57.0,93,30.03,1.8,Variable,5.8,-,0.06,Rain,Heavy Rain,0,2013-11-07 06:13:00
1:19 AM,59.0,57.0,93,30.03,3.0,North,-9999.0,-,0.08,Rain,Light Rain,0,2013-11-07 06:19:00
1:27 AM,59.0,55.9,90,30.03,7.0,Variable,4.6,-,0.08,Rain,Light Rain,0,2013-11-07 06:27:00
1:53 AM,57.9,55.9,93,29.99,2.5,Variable,3.5,-,0.08,Rain,Light Rain,0,2013-11-07 06:53:00
2:02 AM,57.9,55.9,93,30.01,3.0,SW,3.5,-,0.01,Rain,Light Rain,220,2013-11-07 07:02:00
2:08 AM,57.9,55.9,93,30.01,4.0,Variable,4.6,-,0.01,Rain,Light Rain,0,2013-11-07 07:08:00
2:19 AM,57.9,55.9,93,30.01,10.0,Variable,4.6,-,0.01,Rain,Light Rain,0,2013-11-07 07:19:00
2:42 AM,57.9,55.9,93,30.01,10.0,Variable,3.5,-,0.01,Rain,Light Rain,0,2013-11-07 07:42:00
2:53 AM,57.9,55.9,93,29.98,7.0,Variable,4.6,-,0.01,Rain,Light Rain,0,2013-11-07 07:53:00
3:01 AM,57.9,55.9,93,30.01,5.0,Calm,Calm,-,0.01,Rain,Rain,0,2013-11-07 08:01:00
3:08 AM,57.9,55.9,93,30.01,2.0,SSW,3.5,-,0.02,Rain,Rain,210,2013-11-07 08:08:00
3:11 AM,57.9,55.9,93,30.01,1.8,Calm,Calm,-,0.03,Rain,Light Rain,0,2013-11-07 08:11:00
3:18 AM,57.0,55.9,96,30.01,3.0,Variable,6.9,-,0.04,Rain,Rain,0,2013-11-07 08:18:00
3:51 AM,55.4,53.6,94,30.02,10.0,NW,16.1,24.2,0.05,Rain,Light Rain,320,2013-11-07 08:51:00
3:53 AM,54.0,52.0,93,29.99,9.0,WNW,13.8,24.2,0.05,Rain,Light Rain,300,2013-11-07 08:53:00
4:16 AM,51.1,48.0,89,30.03,10.0,Variable,6.9,18.4,0.01,Rain,Light Rain,0,2013-11-07 09:16:00
4:53 AM,48.9,46.0,90,30.04,9.0,NW,10.4,17.3,0.03,Rain,Light Rain,320,2013-11-07 09:53:00
4:56 AM,48.0,45.0,89,30.06,8.0,NW,10.4,17.3,0.00,Rain,Rain,320,2013-11-07 09:56:00
5:16 AM,46.9,45.0,93,30.06,6.0,WNW,9.2,-,0.02,Rain,Light Rain,300,2013-11-07 10:16:00
5:53 AM,46.0,44.1,93,30.07,5.0,Variable,5.8,-,0.08,Rain,Rain,0,2013-11-07 10:53:00
6:09 AM,45.0,44.1,97,30.09,3.0,Variable,3.5,-,0.05,Rain,Rain,0,2013-11-07 11:09:00
6:19 AM,45.0,42.1,90,30.09,4.0,NNW,9.2,17.3,0.07,Rain,Rain,340,2013-11-07 11:19:00
6:27 AM,44.1,42.1,93,30.10,4.0,NW,8.1,-,0.08,Rain,Light Rain,320,2013-11-07 11:27:00
6:53 AM,44.1,41.0,89,30.11,10.0,NW,11.5,-,0.10,Rain,Light Rain,320,2013-11-07 11:53:00
7:23 AM,43.0,39.9,89,30.14,10.0,Variable,5.8,18.4,0.00,,Overcast,0,2013-11-07 12:23:00
7:53 AM,42.1,39.9,92,30.16,10.0,Variable,6.9,17.3,0.00,,Overcast,0,2013-11-07 12:53:00
8:35 AM,43.0,39.0,86,30.20,10.0,NNW,8.1,-,0.00,,Overcast,330,2013-11-07 13:35:00
8:53 AM,42.1,39.0,89,30.20,10.0,NW,5.8,-,0.00,,Overcast,310,2013-11-07 13:53:00
9:03 AM,42.1,39.9,92,30.21,10.0,NW,6.9,-,N/A,,Overcast,310,2013-11-07 14:03:00
9:46 AM,43.0,37.9,82,30.22,10.0,NW,8.1,-,N/A,,Overcast,320,2013-11-07 14:46:00
9:53 AM,43.0,37.9,82,30.21,10.0,NW,6.9,-,N/A,,Overcast,310,2013-11-07 14:53:00
10:53 AM,45.0,37.9,76,30.22,10.0,Variable,6.9,-,N/A,,Mostly Cloudy,0,2013-11-07 15:53:00
11:01 AM,44.1,37.0,76,30.23,10.0,WNW,6.9,-,N/A,,Overcast,300,2013-11-07 16:01:00
11:38 AM,46.9,35.1,63,30.23,10.0,Variable,6.9,-,N/A,,Scattered Clouds,0,2013-11-07 16:38:00
11:49 AM,46.4,35.6,66,30.23,10.0,WNW,8.1,-,N/A,,Mostly Cloudy,300,2013-11-07 16:49:00
11:53 AM,46.0,36.0,68,30.22,10.0,WNW,8.1,-,N/A,,Mostly Cloudy,300,2013-11-07 16:53:00
12:07 PM,46.9,35.1,63,30.22,10.0,NW,8.1,-,N/A,,Mostly Cloudy,310,2013-11-07 17:07:00
12:51 PM,48.2,33.8,58,30.20,10.0,WNW,9.2,-,N/A,,Scattered Clouds,300,2013-11-07 17:51:00
12:53 PM,48.9,33.1,54,30.19,10.0,WNW,9.2,-,N/A,,Scattered Clouds,300,2013-11-07 17:53:00
1:53 PM,48.0,32.0,54,30.19,10.0,WNW,4.6,-,N/A,,Clear,300,2013-11-07 18:53:00
2:53 PM,50.0,30.0,46,30.18,10.0,WNW,10.4,-,N/A,,Partly Cloudy,290,2013-11-07 19:53:00
3:53 PM,48.9,28.9,46,30.19,10.0,Variable,6.9,17.3,N/A,,Scattered Clouds,0,2013-11-07 20:53:00
4:53 PM,46.9,27.0,46,30.21,10.0,NW,4.6,-,N/A,,Clear,310,2013-11-07 21:53:00
5:53 PM,44.1,26.1,49,30.24,10.0,NW,5.8,-,N/A,,Partly Cloudy,310,2013-11-07 22:53:00
6:53 PM,43.0,26.1,51,30.24,10.0,WNW,3.5,-,N/A,,Clear,300,2013-11-07 23:53:00
7:53 PM,41.0,27.0,57,30.25,10.0,West,4.6,-,N/A,,Clear,270,2013-11-08 00:53:00
8:53 PM,39.9,26.1,58,30.26,10.0,West,4.6,-,N/A,,Clear,270,2013-11-08 01:53:00
9:53 PM,39.0,26.1,60,30.27,10.0,West,4.6,-,N/A,,Clear,260,2013-11-08 02:53:00
10:53 PM,37.0,27.0,67,30.27,10.0,Calm,Calm,-,N/A,,Clear,0,2013-11-08 03:53:00
11:53 PM,36.0,26.1,67,30.27,10.0,WSW,4.6,-,N/A,,Clear,240,2013-11-08 04:53:00